createdAt,value
2017-08-17T00:02:19.787Z,4.30
2017-08-17T00:04:46.943Z,5.53
2017-08-17T00:07:13.827Z,5.17
2017-08-17T00:09:40.663Z,5.03
2017-08-17T00:12:07.812Z,4.87
2017-08-17T00:14:34.883Z,5.30
2017-08-17T00:17:01.895Z,5.10
2017-08-17T00:19:28.794Z,6.00
2017-08-17T00:21:56.003Z,4.70
2017-08-17T00:24:22.831Z,6.07
2017-08-17T00:26:50.255Z,5.17
2017-08-17T00:29:17.308Z,5.70
2017-08-17T00:31:44.215Z,5.50
2017-08-17T00:34:11.271Z,5.13
2017-08-17T00:36:38.321Z,5.80
2017-08-17T00:39:05.378Z,6.33
2017-08-17T00:41:32.190Z,7.40
2017-08-17T00:43:59.697Z,7.40
2017-08-17T00:46:27.068Z,6.47
2017-08-17T00:48:54.206Z,5.97
2017-08-17T00:51:21.259Z,6.77
2017-08-17T00:53:48.856Z,5.40
2017-08-17T00:56:16.290Z,5.83
2017-08-17T00:58:43.336Z,6.00
2017-08-17T01:01:11.452Z,5.70
2017-08-17T01:03:38.821Z,6.20
2017-08-17T01:06:05.677Z,6.00
2017-08-17T01:08:32.489Z,6.50
2017-08-17T01:10:59.288Z,5.13
2017-08-17T01:13:26.407Z,5.33
2017-08-17T01:15:53.210Z,5.40
2017-08-17T01:18:20.063Z,6.00
2017-08-17T01:20:47.130Z,5.20
2017-08-17T01:23:14.705Z,5.20
2017-08-17T01:25:42.413Z,5.87
2017-08-17T01:28:09.712Z,4.80
2017-08-17T01:30:36.867Z,5.50
2017-08-17T01:33:04.073Z,5.50
2017-08-17T01:35:31.367Z,5.23
2017-08-17T01:37:58.644Z,5.70
2017-08-17T01:40:26.438Z,5.03
2017-08-17T01:42:53.741Z,5.33
2017-08-17T01:45:21.059Z,4.70
2017-08-17T01:47:48.384Z,5.03
2017-08-17T01:50:15.271Z,4.77
2017-08-17T01:52:42.688Z,5.40
2017-08-17T01:55:09.691Z,5.43
2017-08-17T01:57:36.903Z,5.50
2017-08-17T02:00:04.530Z,5.50
2017-08-17T02:02:31.626Z,4.73
2017-08-17T02:04:59.029Z,5.13
2017-08-17T02:07:26.460Z,5.40
2017-08-17T02:09:53.948Z,5.00
2017-08-17T02:12:21.543Z,4.57
2017-08-17T02:14:48.738Z,5.23
2017-08-17T02:17:15.852Z,4.80
2017-08-17T02:19:43.154Z,5.57
2017-08-17T02:22:09.949Z,4.60
2017-08-17T02:24:36.951Z,5.10
2017-08-17T02:27:04.205Z,5.17
2017-08-17T02:29:31.333Z,4.80
2017-08-17T02:31:58.370Z,4.90
2017-08-17T02:34:25.874Z,5.17
2017-08-17T02:36:53.281Z,4.60
2017-08-17T02:39:21.034Z,5.40
2017-08-17T02:41:48.159Z,4.40
2017-08-17T02:44:15.213Z,5.07
2017-08-17T02:46:42.886Z,5.17
2017-08-17T02:49:10.122Z,5.03
2017-08-17T02:51:38.268Z,5.10
2017-08-17T02:54:05.123Z,4.70
2017-08-17T02:56:32.159Z,4.90
2017-08-17T02:58:59.379Z,5.27
2017-08-17T03:01:26.663Z,4.87
2017-08-17T03:03:54.243Z,5.00
2017-08-17T03:08:54.358Z,4.37
2017-08-17T03:11:21.633Z,5.20
2017-08-17T03:13:48.440Z,5.27
2017-08-17T03:16:15.503Z,5.03
2017-08-17T03:18:43.169Z,5.57
2017-08-17T03:21:09.992Z,5.13
2017-08-17T03:23:37.272Z,5.70
2017-08-17T03:26:04.166Z,5.83
2017-08-17T03:28:31.659Z,5.33
2017-08-17T03:30:58.738Z,6.10
2017-08-17T03:33:26.103Z,5.60
2017-08-17T03:35:53.152Z,5.23
2017-08-17T03:38:20.741Z,5.03
2017-08-17T03:40:48.496Z,5.63
2017-08-17T03:43:15.549Z,5.77
2017-08-17T03:45:42.381Z,5.07
2017-08-17T03:48:09.164Z,5.77
2017-08-17T03:50:35.966Z,4.87
2017-08-17T03:53:03.138Z,6.10
2017-08-17T03:55:30.580Z,5.87
2017-08-17T03:57:57.730Z,6.90
2017-08-17T04:00:24.917Z,5.37
2017-08-17T04:02:51.804Z,5.30
2017-08-17T04:05:19.171Z,5.13
2017-08-17T04:07:46.735Z,5.30
2017-08-17T04:10:13.737Z,5.00
2017-08-17T04:15:13.986Z,5.43
2017-08-17T04:17:41.037Z,5.80
2017-08-17T04:20:08.088Z,19.47
2017-08-17T04:22:34.911Z,5.77
2017-08-17T04:25:01.889Z,6.13
2017-08-17T04:27:28.717Z,5.80
2017-08-17T04:29:56.556Z,6.03
2017-08-17T04:32:23.664Z,5.77
2017-08-17T04:34:50.717Z,6.40
2017-08-17T04:37:17.805Z,6.40
2017-08-17T04:39:44.958Z,5.43
2017-08-17T04:42:12.047Z,5.93
2017-08-17T04:44:38.928Z,6.53
2017-08-17T04:47:06.507Z,6.50
2017-08-17T04:49:33.346Z,7.80
2017-08-17T04:52:00.714Z,5.87
2017-08-17T04:54:27.881Z,6.27
2017-08-17T04:57:06.300Z,6.27
2017-08-17T04:59:33.761Z,5.93
2017-08-17T05:02:00.852Z,6.47
2017-08-17T05:04:27.701Z,6.33
2017-08-17T05:06:54.487Z,5.60
2017-08-17T05:09:21.881Z,6.23
2017-08-17T05:11:48.703Z,5.63
2017-08-17T05:14:15.849Z,5.70
2017-08-17T05:16:43.436Z,6.63
2017-08-17T05:19:11.489Z,6.30
2017-08-17T05:21:38.267Z,6.53
2017-08-17T05:24:05.677Z,6.27
2017-08-17T05:26:32.644Z,5.87
2017-08-17T05:29:00.166Z,6.27
2017-08-17T05:31:26.978Z,6.20
2017-08-17T05:33:54.610Z,6.10
2017-08-17T05:36:21.614Z,6.13
2017-08-17T05:38:49.116Z,5.37
2017-08-17T05:41:16.674Z,6.80
2017-08-17T05:46:16.898Z,6.00
2017-08-17T05:48:43.667Z,5.40
2017-08-17T05:51:11.046Z,6.37
2017-08-17T05:53:38.210Z,6.40
2017-08-17T05:56:05.262Z,6.23
2017-08-17T05:58:33.105Z,5.83
2017-08-17T06:01:00.549Z,5.60
2017-08-17T06:03:27.397Z,6.13
2017-08-17T06:05:54.556Z,5.83
2017-08-17T06:08:21.365Z,5.63
2017-08-17T06:10:48.734Z,5.83
2017-08-17T06:13:15.511Z,5.10
2017-08-17T06:15:43.222Z,5.00
2017-08-17T06:18:10.010Z,4.70
2017-08-17T06:20:37.233Z,5.07
2017-08-17T06:23:04.217Z,4.83
2017-08-17T06:25:31.544Z,4.93
2017-08-17T06:27:58.512Z,5.30
2017-08-17T06:30:25.669Z,4.90
2017-08-17T06:32:53.094Z,5.10
2017-08-17T06:35:19.896Z,5.87
2017-08-17T06:37:46.876Z,7.00
2017-08-17T06:40:14.062Z,6.40
2017-08-17T06:42:41.117Z,5.90
2017-08-17T06:45:08.358Z,11.60
2017-08-17T06:47:36.098Z,6.53
2017-08-17T06:50:03.071Z,6.87
2017-08-17T06:52:30.251Z,7.73
2017-08-17T06:54:57.303Z,6.13
2017-08-17T06:57:24.200Z,6.20
2017-08-17T06:59:51.101Z,7.70
2017-08-17T07:02:18.010Z,7.47
2017-08-17T07:04:45.291Z,8.00
2017-08-17T07:07:12.261Z,8.00
2017-08-17T07:09:39.517Z,8.00
2017-08-17T07:12:06.927Z,8.20
2017-08-17T07:14:34.120Z,9.33
2017-08-17T07:17:01.406Z,9.37
2017-08-17T07:19:29.203Z,9.40
2017-08-17T07:21:56.115Z,9.53
2017-08-17T07:24:23.540Z,11.27
2017-08-17T07:26:50.528Z,11.97
2017-08-17T07:29:17.353Z,11.13
2017-08-17T07:31:44.330Z,12.00
2017-08-17T07:34:11.998Z,11.17
2017-08-17T07:36:39.524Z,13.30
2017-08-17T07:39:07.020Z,11.50
2017-08-17T07:41:34.690Z,12.53
2017-08-17T07:44:01.729Z,13.23
2017-08-17T07:46:28.794Z,13.43
2017-08-17T07:48:56.199Z,14.37
2017-08-17T07:51:23.881Z,13.80
2017-08-17T07:53:51.666Z,16.03
2017-08-17T07:56:18.858Z,13.90
2017-08-17T07:58:45.741Z,13.67
2017-08-17T08:01:12.790Z,17.67
2017-08-17T08:03:39.576Z,14.87
2017-08-17T08:06:06.760Z,16.03
2017-08-17T08:08:33.809Z,15.10
2017-08-17T08:11:00.592Z,16.83
2017-08-17T08:13:27.926Z,17.13
2017-08-17T08:15:54.971Z,15.27
2017-08-17T08:18:22.040Z,15.77
2017-08-17T08:20:48.875Z,16.10
2017-08-17T08:23:16.068Z,15.80
2017-08-17T08:25:43.479Z,15.90
2017-08-17T08:28:10.539Z,16.13
2017-08-17T08:30:37.344Z,14.60
2017-08-17T08:33:04.148Z,15.80
2017-08-17T08:35:31.392Z,14.50
2017-08-17T08:37:59.061Z,15.13
2017-08-17T08:40:26.109Z,16.40
2017-08-17T08:42:53.369Z,16.00
2017-08-17T08:45:20.534Z,16.43
2017-08-17T08:47:48.189Z,16.50
2017-08-17T08:50:15.558Z,18.70
2017-08-17T08:52:42.343Z,15.40
2017-08-17T08:55:09.682Z,15.53
2017-08-17T08:57:36.708Z,15.23
2017-08-17T09:00:03.503Z,15.70
2017-08-17T09:02:30.322Z,15.57
2017-08-17T09:04:57.565Z,16.00
2017-08-17T09:07:24.462Z,14.43
2017-08-17T09:09:51.870Z,14.60
2017-08-17T09:12:19.031Z,15.13
2017-08-17T09:14:46.137Z,14.50
2017-08-17T09:17:13.439Z,15.70
2017-08-17T09:19:40.266Z,14.70
2017-08-17T09:22:07.040Z,14.63
2017-08-17T09:24:34.168Z,14.33
2017-08-17T09:27:01.356Z,13.90
2017-08-17T09:29:28.708Z,16.03
2017-08-17T09:31:55.597Z,15.10
2017-08-17T09:34:22.465Z,14.30
2017-08-17T09:36:49.568Z,14.57
2017-08-17T09:39:16.351Z,15.27
2017-08-17T09:41:43.674Z,15.57
2017-08-17T09:44:10.559Z,16.13
2017-08-17T09:46:37.980Z,15.97
2017-08-17T09:49:05.145Z,15.63
2017-08-17T09:51:32.797Z,15.27
2017-08-17T09:53:59.853Z,16.10
2017-08-17T09:56:26.663Z,15.57
2017-08-17T09:58:53.440Z,14.23
2017-08-17T10:01:20.399Z,14.63
2017-08-17T10:03:47.236Z,13.43
2017-08-17T10:06:14.767Z,15.97
2017-08-17T10:08:41.543Z,13.93
2017-08-17T10:11:08.720Z,14.87
2017-08-17T10:13:36.218Z,14.50
2017-08-17T10:16:03.331Z,12.60
2017-08-17T10:18:31.308Z,13.83
2017-08-17T10:20:58.103Z,14.43
2017-08-17T10:23:24.944Z,13.60
2017-08-17T10:25:52.169Z,15.33
2017-08-17T10:28:18.948Z,13.50
2017-08-17T10:30:45.850Z,13.87
2017-08-17T10:33:13.483Z,13.10
2017-08-17T10:35:40.514Z,13.17
2017-08-17T10:38:07.730Z,13.73
2017-08-17T10:40:34.614Z,13.40
2017-08-17T10:43:01.699Z,14.10
2017-08-17T10:45:28.730Z,13.27
2017-08-17T10:47:56.249Z,13.40
2017-08-17T10:50:23.031Z,13.00
2017-08-17T10:52:50.253Z,13.00
2017-08-17T10:55:17.088Z,12.30
2017-08-17T10:57:44.476Z,12.30
2017-08-17T11:00:11.701Z,13.03
2017-08-17T11:02:39.441Z,13.43
2017-08-17T11:05:06.267Z,13.10
2017-08-17T11:07:33.039Z,11.80
2017-08-17T11:10:00.743Z,12.90
2017-08-17T11:12:27.706Z,11.20
2017-08-17T11:14:55.377Z,11.10
2017-08-17T11:17:22.338Z,11.10
2017-08-17T11:19:49.475Z,12.20
2017-08-17T11:22:17.329Z,11.70
2017-08-17T11:24:44.605Z,11.07
2017-08-17T11:27:11.711Z,10.70
2017-08-17T11:29:38.770Z,12.13
2017-08-17T11:32:05.813Z,13.33
2017-08-17T11:34:33.044Z,12.33
2017-08-17T11:37:00.075Z,11.90
2017-08-17T11:39:26.908Z,12.10
2017-08-17T11:41:54.181Z,11.33
2017-08-17T11:44:21.234Z,11.60
2017-08-17T11:46:48.179Z,12.00
2017-08-17T11:49:15.002Z,11.47
2017-08-17T11:51:42.085Z,12.07
2017-08-17T11:54:09.332Z,12.00
2017-08-17T11:56:36.207Z,11.87
2017-08-17T11:59:03.868Z,11.60
2017-08-17T12:01:31.219Z,11.30
2017-08-17T12:03:58.274Z,10.93
2017-08-17T12:06:26.079Z,12.60
2017-08-17T12:08:52.931Z,13.50
2017-08-17T12:11:19.889Z,13.00
2017-08-17T12:13:46.713Z,12.23
2017-08-17T12:16:13.845Z,13.70
2017-08-17T12:18:40.761Z,11.90
2017-08-17T12:21:08.323Z,12.70
2017-08-17T12:23:35.662Z,12.17
2017-08-17T12:26:02.671Z,12.93
2017-08-17T12:28:29.913Z,12.70
2017-08-17T12:30:56.940Z,11.30
2017-08-17T12:33:23.975Z,12.20
2017-08-17T12:35:51.194Z,12.10
2017-08-17T12:38:18.007Z,10.93
2017-08-17T12:40:45.407Z,11.33
2017-08-17T12:43:12.243Z,12.60
2017-08-17T12:45:39.253Z,11.17
2017-08-17T12:48:06.464Z,12.40
2017-08-17T12:50:33.508Z,10.13
2017-08-17T12:53:00.406Z,10.27
2017-08-17T12:55:27.454Z,10.37
2017-08-17T12:57:54.292Z,11.40
2017-08-17T13:00:21.414Z,10.60
2017-08-17T13:02:48.800Z,10.70
2017-08-17T13:05:16.565Z,11.80
2017-08-17T13:07:43.419Z,11.93
2017-08-17T13:10:10.548Z,11.73
2017-08-17T13:12:37.359Z,11.17
2017-08-17T13:15:04.187Z,10.70
2017-08-17T13:17:31.400Z,9.30
2017-08-17T13:19:58.456Z,10.97
2017-08-17T13:22:25.316Z,10.63
2017-08-17T13:24:52.785Z,10.10
2017-08-17T13:27:19.582Z,11.60
2017-08-17T13:29:46.438Z,10.70
2017-08-17T13:32:13.419Z,10.80
2017-08-17T13:34:40.470Z,10.97
2017-08-17T13:37:07.307Z,10.80
2017-08-17T13:39:34.571Z,11.80
2017-08-17T13:42:01.621Z,11.30
2017-08-17T13:44:28.512Z,11.33
2017-08-17T13:46:56.088Z,10.27
2017-08-17T13:49:23.091Z,11.00
2017-08-17T13:51:49.914Z,10.20
2017-08-17T13:54:17.198Z,11.50
2017-08-17T13:56:44.611Z,11.60
2017-08-17T13:59:11.450Z,10.50
2017-08-17T14:01:38.891Z,10.27
2017-08-17T14:04:06.028Z,11.10
2017-08-17T14:06:33.213Z,9.97
2017-08-17T14:09:00.697Z,10.47
2017-08-17T14:12:08.546Z,10.17
2017-08-17T14:14:35.761Z,9.27
2017-08-17T14:17:02.550Z,9.90
2017-08-17T14:19:29.634Z,8.97
2017-08-17T14:21:56.678Z,9.40
2017-08-17T14:24:24.200Z,8.70
2017-08-17T14:26:51.321Z,9.60
2017-08-17T14:29:18.303Z,9.80
2017-08-17T14:31:45.216Z,10.00
2017-08-17T14:34:12.419Z,9.33
2017-08-17T14:36:39.212Z,9.90
2017-08-17T14:39:06.054Z,8.63
2017-08-17T14:41:33.286Z,9.33
2017-08-17T14:44:00.322Z,12.33
2017-08-17T14:46:27.371Z,11.30
2017-08-17T14:48:54.262Z,11.77
2017-08-17T14:51:21.480Z,13.00
2017-08-17T14:53:48.267Z,12.70
2017-08-17T14:56:15.276Z,13.80
2017-08-17T14:58:42.069Z,13.30
2017-08-17T15:01:09.388Z,15.33
2017-08-17T15:03:36.438Z,15.30
2017-08-17T15:06:03.494Z,13.83
2017-08-17T15:08:31.163Z,15.03
2017-08-17T15:10:57.992Z,14.80
2017-08-17T15:13:24.822Z,14.70
2017-08-17T15:15:51.610Z,15.03
2017-08-17T15:18:18.756Z,12.87
2017-08-17T15:20:45.812Z,15.10
2017-08-17T15:23:13.347Z,13.90
2017-08-17T15:25:40.177Z,14.57
2017-08-17T15:28:06.982Z,13.57
2017-08-17T15:30:34.634Z,12.53
2017-08-17T15:33:01.690Z,10.83
2017-08-17T15:35:28.585Z,12.27
2017-08-17T15:37:56.025Z,13.33
2017-08-17T15:40:23.591Z,11.90
2017-08-17T15:42:50.821Z,10.53
2017-08-17T15:45:17.625Z,9.30
2017-08-17T15:47:45.198Z,9.60
2017-08-17T15:50:12.307Z,9.50
2017-08-17T15:52:39.163Z,9.13
2017-08-17T15:55:06.904Z,9.87
2017-08-17T15:57:34.315Z,10.27
2017-08-17T16:00:01.420Z,9.17
2017-08-17T16:02:28.473Z,11.60
2017-08-17T16:04:55.340Z,10.37
2017-08-17T16:07:22.112Z,9.87
2017-08-17T16:09:49.018Z,10.60
2017-08-17T16:12:16.625Z,9.40
2017-08-17T16:14:44.399Z,11.50
2017-08-17T16:17:11.864Z,11.93
2017-08-17T16:19:39.073Z,11.47
2017-08-17T16:22:06.126Z,12.30
2017-08-17T16:24:33.018Z,12.60
2017-08-17T16:27:00.487Z,11.50
2017-08-17T16:29:27.957Z,12.70
2017-08-17T16:31:55.485Z,11.37
2017-08-17T16:34:22.274Z,9.70
2017-08-17T16:36:49.369Z,10.63
2017-08-17T16:39:16.202Z,10.80
2017-08-17T16:41:42.987Z,9.07
2017-08-17T16:44:10.267Z,10.80
2017-08-17T16:46:37.081Z,11.90
2017-08-17T16:49:04.327Z,10.40
2017-08-17T16:51:32.128Z,10.40
2017-08-17T16:53:59.948Z,11.90
2017-08-17T16:56:27.209Z,11.70
2017-08-17T16:58:54.072Z,10.27
2017-08-17T17:01:20.913Z,11.10
2017-08-17T17:03:48.178Z,12.53
2017-08-17T17:06:14.999Z,12.03
2017-08-17T17:08:42.282Z,11.07
2017-08-17T17:11:09.172Z,11.40
2017-08-17T17:13:36.390Z,11.23
2017-08-17T17:16:03.750Z,10.30
2017-08-17T17:18:30.658Z,10.20
2017-08-17T17:20:57.697Z,11.10
2017-08-17T17:23:24.854Z,10.77
2017-08-17T17:25:51.962Z,12.57
2017-08-17T17:28:19.016Z,12.67
2017-08-17T17:30:46.134Z,12.57
2017-08-17T17:33:12.967Z,12.70
2017-08-17T17:35:39.870Z,15.67
2017-08-17T17:38:06.930Z,13.10
2017-08-17T17:40:33.984Z,13.60
2017-08-17T17:43:01.037Z,13.17
2017-08-17T17:45:27.926Z,15.27
2017-08-17T17:47:54.766Z,14.50
2017-08-17T17:50:21.721Z,15.60
2017-08-17T17:52:48.933Z,14.77
2017-08-17T17:55:15.985Z,14.67
2017-08-17T17:57:43.141Z,15.97
2017-08-17T18:00:10.787Z,16.13
2017-08-17T18:02:38.688Z,16.20
2017-08-17T18:05:05.475Z,15.77
2017-08-17T18:07:32.627Z,16.67
2017-08-17T18:09:59.455Z,15.70
2017-08-17T18:12:26.588Z,16.67
2017-08-17T18:14:53.899Z,15.67
2017-08-17T18:17:21.188Z,17.70
2017-08-17T18:19:48.359Z,16.77
2017-08-17T18:22:15.899Z,18.20
2017-08-17T18:24:43.304Z,16.63
2017-08-17T18:27:10.443Z,17.13
2017-08-17T18:29:37.696Z,17.07
2017-08-17T18:32:05.039Z,19.20
2017-08-17T18:34:32.781Z,16.67
2017-08-17T18:36:59.741Z,17.87
2017-08-17T18:39:26.574Z,18.97
2017-08-17T18:41:53.679Z,17.53
2017-08-17T18:46:53.924Z,17.57
2017-08-17T18:49:20.980Z,17.93
2017-08-17T18:51:48.653Z,17.70
2017-08-17T18:54:15.704Z,16.67
2017-08-17T18:56:43.060Z,18.40
2017-08-17T18:59:10.312Z,16.70
2017-08-17T19:01:37.474Z,15.67
2017-08-17T19:04:05.637Z,18.80
2017-08-17T19:06:34.444Z,17.57
2017-08-17T19:09:02.624Z,17.90
2017-08-17T19:11:30.578Z,17.23
2017-08-17T19:13:58.466Z,17.53
2017-08-17T19:16:26.664Z,18.20
2017-08-17T19:18:54.956Z,17.67
2017-08-17T19:21:24.030Z,18.37
2017-08-17T19:23:52.096Z,17.73
2017-08-17T19:26:20.055Z,19.53
2017-08-17T19:28:48.255Z,18.03
2017-08-17T19:31:16.132Z,20.37
2017-08-17T19:33:44.078Z,18.00
2017-08-17T19:36:12.270Z,22.10
2017-08-17T19:38:40.551Z,20.37
2017-08-17T19:41:08.842Z,20.80
2017-08-17T19:43:36.819Z,19.67
2017-08-17T19:46:04.999Z,18.67
2017-08-17T19:48:32.863Z,18.50
2017-08-17T19:51:00.824Z,19.97
2017-08-17T19:53:29.009Z,20.13
2017-08-17T19:55:56.206Z,18.63
2017-08-17T19:58:23.335Z,20.60
2017-08-17T20:00:50.696Z,20.40
2017-08-17T20:03:18.903Z,21.00
2017-08-17T20:05:46.277Z,20.63
2017-08-17T20:08:13.543Z,21.60
2017-08-17T20:10:40.934Z,22.60
2017-08-17T20:13:08.460Z,20.70
2017-08-17T20:15:35.798Z,20.70
2017-08-17T20:18:02.648Z,21.17
2017-08-17T20:20:29.880Z,21.30
2017-08-17T20:22:57.546Z,20.80
2017-08-17T20:25:25.227Z,20.20
2017-08-17T20:27:52.006Z,21.00
2017-08-17T20:30:19.294Z,22.37
2017-08-17T20:32:47.746Z,23.00
2017-08-17T20:35:14.958Z,21.70
2017-08-17T20:37:41.758Z,22.70
2017-08-17T20:40:09.065Z,24.20
2017-08-17T20:42:36.120Z,21.70
2017-08-17T20:45:03.174Z,21.93
2017-08-17T20:47:30.226Z,22.63
2017-08-17T20:49:57.694Z,20.87
2017-08-17T20:52:24.482Z,21.67
2017-08-17T20:54:51.696Z,22.17
2017-08-17T20:57:18.519Z,22.30
2017-08-17T20:59:45.642Z,22.30
2017-08-17T21:02:13.447Z,20.70
2017-08-17T21:04:40.344Z,22.13
2017-08-17T21:07:07.925Z,23.10
2017-08-17T21:09:34.811Z,22.73
2017-08-17T21:12:02.611Z,22.70
2017-08-17T21:14:30.276Z,22.37
2017-08-17T21:16:57.107Z,21.87
2017-08-17T21:19:24.238Z,21.27
2017-08-17T21:21:51.986Z,20.47
2017-08-17T21:24:19.092Z,21.37
2017-08-17T21:26:45.906Z,21.40
2017-08-17T21:29:13.784Z,20.60
2017-08-17T21:31:41.173Z,19.97
2017-08-17T21:34:08.224Z,22.57
2017-08-17T21:36:35.286Z,23.13
2017-08-17T21:39:02.504Z,22.27
2017-08-17T21:41:29.421Z,21.80
2017-08-17T21:43:56.671Z,22.40
2017-08-17T21:46:23.695Z,22.40
2017-08-17T21:48:51.426Z,21.00
2017-08-17T21:51:18.218Z,20.60
2017-08-17T21:53:45.274Z,21.23
2017-08-17T21:56:12.105Z,22.30
2017-08-17T21:58:39.709Z,24.83
2017-08-17T22:01:06.802Z,22.77
2017-08-17T22:03:33.933Z,21.80
2017-08-17T22:06:01.195Z,22.87
2017-08-17T22:08:28.504Z,21.73
2017-08-17T22:10:55.379Z,22.70
2017-08-17T22:13:23.090Z,18.57
2017-08-17T22:15:50.239Z,21.93
2017-08-17T22:18:17.161Z,21.40
2017-08-17T22:20:43.935Z,23.60
2017-08-17T22:23:11.000Z,25.97
2017-08-17T22:25:38.183Z,24.10
2017-08-17T22:28:04.983Z,26.47
2017-08-17T22:30:31.804Z,25.83
2017-08-17T22:32:59.041Z,24.70
2017-08-17T22:35:25.898Z,27.00
2017-08-17T22:37:52.981Z,26.93
2017-08-17T22:40:20.309Z,26.33
2017-08-17T22:42:47.170Z,25.97
2017-08-17T22:45:14.737Z,24.87
2017-08-17T22:47:41.819Z,26.13
2017-08-17T22:50:09.018Z,26.40
2017-08-17T22:52:35.941Z,24.27
2017-08-17T22:55:03.128Z,25.40
2017-08-17T22:57:29.992Z,26.40
2017-08-17T22:59:57.235Z,25.27
2017-08-17T23:02:24.678Z,25.53
2017-08-17T23:04:52.226Z,27.20
2017-08-17T23:07:19.051Z,27.57
2017-08-17T23:09:45.827Z,24.20
2017-08-17T23:12:12.623Z,27.40
2017-08-17T23:14:39.447Z,22.30
2017-08-17T23:17:06.427Z,27.47
2017-08-17T23:19:33.795Z,26.60
2017-08-17T23:22:00.619Z,29.10
2017-08-17T23:24:27.766Z,26.53
2017-08-17T23:26:54.547Z,27.33
2017-08-17T23:29:21.390Z,31.13
2017-08-17T23:31:48.168Z,32.87
2017-08-17T23:34:15.363Z,30.67
2017-08-17T23:36:42.227Z,32.40
2017-08-17T23:39:09.026Z,31.87
2017-08-17T23:41:36.560Z,32.57
2017-08-17T23:44:03.410Z,29.50
2017-08-17T23:46:30.629Z,33.37
2017-08-17T23:48:57.679Z,30.90
2017-08-17T23:51:25.551Z,28.67
2017-08-17T23:53:52.554Z,30.97
2017-08-17T23:56:19.347Z,30.07
2017-08-17T23:58:46.331Z,31.70
